sensor_id;sensor_type;location;lat;lon;timestamp;P1;durP1;ratioP1;P2;durP2;ratioP2
52468;SDS011;38381;53.688;10.776;2022-12-18T00:01:58;30.73;;;24.55;;
52468;SDS011;38381;53.688;10.776;2022-12-18T00:06:59;39.42;;;27.27;;
52468;SDS011;38381;53.688;10.776;2022-12-18T00:11:59;35.25;;;27.88;;
52468;SDS011;38381;53.688;10.776;2022-12-18T00:17:00;34.50;;;27.73;;
52468;SDS011;38381;53.688;10.776;2022-12-18T00:22:00;37.35;;;27.35;;
52468;SDS011;38381;53.688;10.776;2022-12-18T00:27:01;33.50;;;28.23;;
52468;SDS011;38381;53.688;10.776;2022-12-18T00:32:01;36.83;;;28.73;;
52468;SDS011;38381;53.688;10.776;2022-12-18T00:37:01;34.72;;;28.17;;
52468;SDS011;38381;53.688;10.776;2022-12-18T00:42:02;39.88;;;28.23;;
52468;SDS011;38381;53.688;10.776;2022-12-18T00:47:21;35.78;;;27.98;;
52468;SDS011;38381;53.688;10.776;2022-12-18T00:52:21;30.65;;;23.15;;
52468;SDS011;38381;53.688;10.776;2022-12-18T00:57:29;36.65;;;29.58;;
52468;SDS011;38381;53.688;10.776;2022-12-18T01:02:29;33.30;;;27.45;;
52468;SDS011;38381;53.688;10.776;2022-12-18T01:07:30;34.95;;;28.58;;
52468;SDS011;38381;53.688;10.776;2022-12-18T01:12:31;40.60;;;28.42;;
52468;SDS011;38381;53.688;10.776;2022-12-18T01:17:32;31.83;;;27.50;;
52468;SDS011;38381;53.688;10.776;2022-12-18T01:22:32;35.10;;;27.67;;
52468;SDS011;38381;53.688;10.776;2022-12-18T01:27:33;36.67;;;28.55;;
52468;SDS011;38381;53.688;10.776;2022-12-18T01:32:34;40.20;;;28.43;;
52468;SDS011;38381;53.688;10.776;2022-12-18T01:37:34;37.67;;;28.38;;
52468;SDS011;38381;53.688;10.776;2022-12-18T01:42:35;31.02;;;24.52;;
52468;SDS011;38381;53.688;10.776;2022-12-18T01:52:46;39.55;;;27.67;;
52468;SDS011;38381;53.688;10.776;2022-12-18T01:57:51;39.35;;;28.20;;
52468;SDS011;38381;53.688;10.776;2022-12-18T02:02:54;33.38;;;25.77;;
52468;SDS011;38381;53.688;10.776;2022-12-18T02:08:03;41.70;;;27.08;;
52468;SDS011;38381;53.688;10.776;2022-12-18T02:13:20;32.47;;;26.40;;
52468;SDS011;38381;53.688;10.776;2022-12-18T02:18:28;28.95;;;25.83;;
52468;SDS011;38381;53.688;10.776;2022-12-18T02:23:40;38.40;;;25.05;;
52468;SDS011;38381;53.688;10.776;2022-12-18T02:28:42;35.53;;;26.35;;
52468;SDS011;38381;53.688;10.776;2022-12-18T02:33:58;37.97;;;26.95;;
52468;SDS011;38381;53.688;10.776;2022-12-18T02:39:01;39.78;;;27.65;;
52468;SDS011;38381;53.688;10.776;2022-12-18T02:44:07;34.53;;;26.70;;
52468;SDS011;38381;53.688;10.776;2022-12-18T02:59:38;37.83;;;25.30;;
52468;SDS011;38381;53.688;10.776;2022-12-18T03:09:57;39.90;;;25.67;;
52468;SDS011;38381;53.688;10.776;2022-12-18T03:15:08;36.97;;;28.42;;
52468;SDS011;38381;53.688;10.776;2022-12-18T03:20:14;36.65;;;24.88;;
52468;SDS011;38381;53.688;10.776;2022-12-18T03:25:18;40.13;;;27.38;;
52468;SDS011;38381;53.688;10.776;2022-12-18T03:30:19;36.10;;;27.40;;
52468;SDS011;38381;53.688;10.776;2022-12-18T03:35:24;39.35;;;26.75;;
52468;SDS011;38381;53.688;10.776;2022-12-18T03:40:44;38.63;;;25.10;;
52468;SDS011;38381;53.688;10.776;2022-12-18T03:45:59;41.70;;;25.85;;
52468;SDS011;38381;53.688;10.776;2022-12-18T03:51:06;45.05;;;27.88;;
52468;SDS011;38381;53.688;10.776;2022-12-18T03:56:10;31.50;;;23.65;;
52468;SDS011;38381;53.688;10.776;2022-12-18T04:01:14;41.22;;;28.77;;
52468;SDS011;38381;53.688;10.776;2022-12-18T04:06:16;37.25;;;26.88;;
52468;SDS011;38381;53.688;10.776;2022-12-18T04:11:17;35.73;;;23.70;;
52468;SDS011;38381;53.688;10.776;2022-12-18T04:16:18;38.35;;;26.75;;
52468;SDS011;38381;53.688;10.776;2022-12-18T04:21:18;33.45;;;23.02;;
52468;SDS011;38381;53.688;10.776;2022-12-18T04:26:19;37.30;;;25.10;;
52468;SDS011;38381;53.688;10.776;2022-12-18T04:31:20;38.00;;;24.70;;
52468;SDS011;38381;53.688;10.776;2022-12-18T04:36:20;39.47;;;24.50;;
52468;SDS011;38381;53.688;10.776;2022-12-18T04:41:21;38.70;;;25.85;;
52468;SDS011;38381;53.688;10.776;2022-12-18T04:46:21;33.50;;;25.20;;
52468;SDS011;38381;53.688;10.776;2022-12-18T04:51:22;34.92;;;23.65;;
52468;SDS011;38381;53.688;10.776;2022-12-18T04:56:22;35.63;;;22.27;;
52468;SDS011;38381;53.688;10.776;2022-12-18T05:01:23;30.43;;;21.97;;
52468;SDS011;38381;53.688;10.776;2022-12-18T05:06:23;38.93;;;25.33;;
52468;SDS011;38381;53.688;10.776;2022-12-18T05:11:23;35.72;;;22.80;;
52468;SDS011;38381;53.688;10.776;2022-12-18T05:16:24;38.92;;;24.88;;
52468;SDS011;38381;53.688;10.776;2022-12-18T05:21:25;31.80;;;23.03;;
52468;SDS011;38381;53.688;10.776;2022-12-18T05:26:26;35.72;;;22.45;;
52468;SDS011;38381;53.688;10.776;2022-12-18T05:31:26;32.60;;;23.00;;
52468;SDS011;38381;53.688;10.776;2022-12-18T05:36:29;32.95;;;22.30;;
52468;SDS011;38381;53.688;10.776;2022-12-18T05:41:30;31.05;;;21.70;;
52468;SDS011;38381;53.688;10.776;2022-12-18T05:46:30;28.40;;;17.77;;
52468;SDS011;38381;53.688;10.776;2022-12-18T05:51:30;40.60;;;24.23;;
52468;SDS011;38381;53.688;10.776;2022-12-18T05:56:31;39.37;;;22.60;;
52468;SDS011;38381;53.688;10.776;2022-12-18T06:01:31;29.43;;;20.53;;
52468;SDS011;38381;53.688;10.776;2022-12-18T06:06:32;30.50;;;21.70;;
52468;SDS011;38381;53.688;10.776;2022-12-18T06:11:32;29.87;;;20.53;;
52468;SDS011;38381;53.688;10.776;2022-12-18T06:16:33;35.03;;;24.80;;
52468;SDS011;38381;53.688;10.776;2022-12-18T06:21:33;37.17;;;21.73;;
52468;SDS011;38381;53.688;10.776;2022-12-18T06:26:33;38.47;;;24.93;;
52468;SDS011;38381;53.688;10.776;2022-12-18T06:31:36;32.55;;;20.80;;
52468;SDS011;38381;53.688;10.776;2022-12-18T06:36:37;28.57;;;21.43;;
52468;SDS011;38381;53.688;10.776;2022-12-18T06:41:37;31.27;;;20.13;;
52468;SDS011;38381;53.688;10.776;2022-12-18T06:46:38;36.80;;;19.67;;
52468;SDS011;38381;53.688;10.776;2022-12-18T06:51:38;29.17;;;20.88;;
52468;SDS011;38381;53.688;10.776;2022-12-18T06:56:39;35.30;;;23.70;;
52468;SDS011;38381;53.688;10.776;2022-12-18T07:01:39;29.83;;;21.83;;
52468;SDS011;38381;53.688;10.776;2022-12-18T07:06:39;35.27;;;20.97;;
52468;SDS011;38381;53.688;10.776;2022-12-18T07:11:40;32.40;;;19.60;;
52468;SDS011;38381;53.688;10.776;2022-12-18T07:16:40;37.77;;;22.93;;
52468;SDS011;38381;53.688;10.776;2022-12-18T07:21:41;37.63;;;21.83;;
52468;SDS011;38381;53.688;10.776;2022-12-18T07:26:41;37.37;;;22.00;;
52468;SDS011;38381;53.688;10.776;2022-12-18T07:31:41;35.43;;;21.00;;
52468;SDS011;38381;53.688;10.776;2022-12-18T07:36:42;27.80;;;19.17;;
52468;SDS011;38381;53.688;10.776;2022-12-18T07:41:42;30.30;;;18.80;;
52468;SDS011;38381;53.688;10.776;2022-12-18T07:46:45;29.92;;;19.35;;
52468;SDS011;38381;53.688;10.776;2022-12-18T07:51:46;34.23;;;19.70;;
52468;SDS011;38381;53.688;10.776;2022-12-18T07:56:49;29.88;;;19.83;;
52468;SDS011;38381;53.688;10.776;2022-12-18T08:01:49;28.77;;;20.40;;
52468;SDS011;38381;53.688;10.776;2022-12-18T08:06:50;35.63;;;20.80;;
52468;SDS011;38381;53.688;10.776;2022-12-18T08:11:50;34.33;;;19.83;;
52468;SDS011;38381;53.688;10.776;2022-12-18T08:16:51;31.17;;;18.60;;
52468;SDS011;38381;53.688;10.776;2022-12-18T08:21:51;28.13;;;18.47;;
52468;SDS011;38381;53.688;10.776;2022-12-18T08:26:52;33.67;;;22.63;;
52468;SDS011;38381;53.688;10.776;2022-12-18T08:31:52;31.13;;;18.93;;
52468;SDS011;38381;53.688;10.776;2022-12-18T08:36:53;27.80;;;20.35;;
52468;SDS011;38381;53.688;10.776;2022-12-18T08:41:53;39.33;;;22.07;;
52468;SDS011;38381;53.688;10.776;2022-12-18T08:47:12;26.35;;;17.05;;
52468;SDS011;38381;53.688;10.776;2022-12-18T08:52:15;25.52;;;17.83;;
52468;SDS011;38381;53.688;10.776;2022-12-18T08:57:16;34.92;;;21.88;;
52468;SDS011;38381;53.688;10.776;2022-12-18T09:02:16;26.25;;;17.27;;
52468;SDS011;38381;53.688;10.776;2022-12-18T09:07:17;26.85;;;15.82;;
52468;SDS011;38381;53.688;10.776;2022-12-18T09:12:17;26.33;;;17.50;;
52468;SDS011;38381;53.688;10.776;2022-12-18T09:17:18;29.73;;;18.02;;
52468;SDS011;38381;53.688;10.776;2022-12-18T09:22:18;29.30;;;17.38;;
52468;SDS011;38381;53.688;10.776;2022-12-18T09:27:18;26.17;;;17.98;;
52468;SDS011;38381;53.688;10.776;2022-12-18T09:32:19;30.40;;;17.42;;
52468;SDS011;38381;53.688;10.776;2022-12-18T09:37:20;26.77;;;16.52;;
52468;SDS011;38381;53.688;10.776;2022-12-18T09:42:21;21.35;;;15.98;;
52468;SDS011;38381;53.688;10.776;2022-12-18T09:57:32;26.02;;;18.17;;
52468;SDS011;38381;53.688;10.776;2022-12-18T10:02:36;24.13;;;15.98;;
52468;SDS011;38381;53.688;10.776;2022-12-18T10:12:59;29.63;;;20.08;;
52468;SDS011;38381;53.688;10.776;2022-12-18T10:28:29;26.55;;;17.83;;
52468;SDS011;38381;53.688;10.776;2022-12-18T10:33:31;29.50;;;17.42;;
52468;SDS011;38381;53.688;10.776;2022-12-18T10:38:34;29.58;;;16.52;;
52468;SDS011;38381;53.688;10.776;2022-12-18T10:43:35;28.50;;;17.92;;
52468;SDS011;38381;53.688;10.776;2022-12-18T10:53:50;24.95;;;18.20;;
52468;SDS011;38381;53.688;10.776;2022-12-18T10:59:01;28.40;;;15.85;;
52468;SDS011;38381;53.688;10.776;2022-12-18T11:04:09;27.23;;;16.00;;
52468;SDS011;38381;53.688;10.776;2022-12-18T11:09:19;23.98;;;17.25;;
52468;SDS011;38381;53.688;10.776;2022-12-18T11:14:25;26.00;;;16.50;;
52468;SDS011;38381;53.688;10.776;2022-12-18T11:19:31;30.67;;;16.52;;
52468;SDS011;38381;53.688;10.776;2022-12-18T11:24:35;24.75;;;16.45;;
52468;SDS011;38381;53.688;10.776;2022-12-18T11:29:37;24.42;;;14.73;;
52468;SDS011;38381;53.688;10.776;2022-12-18T11:34:39;27.48;;;18.20;;
52468;SDS011;38381;53.688;10.776;2022-12-18T11:39:46;29.00;;;16.95;;
52468;SDS011;38381;53.688;10.776;2022-12-18T11:45:00;25.50;;;16.83;;
52468;SDS011;38381;53.688;10.776;2022-12-18T12:06:37;27.67;;;15.75;;
52468;SDS011;38381;53.688;10.776;2022-12-18T12:17:36;28.10;;;17.08;;
52468;SDS011;38381;53.688;10.776;2022-12-18T12:22:49;27.02;;;17.52;;
52468;SDS011;38381;53.688;10.776;2022-12-18T12:33:55;30.67;;;19.73;;
52468;SDS011;38381;53.688;10.776;2022-12-18T12:38:57;27.30;;;18.10;;
52468;SDS011;38381;53.688;10.776;2022-12-18T12:44:01;34.85;;;20.35;;
52468;SDS011;38381;53.688;10.776;2022-12-18T12:49:09;31.98;;;18.45;;
52468;SDS011;38381;53.688;10.776;2022-12-18T12:54:15;28.15;;;17.17;;
52468;SDS011;38381;53.688;10.776;2022-12-18T13:15:20;32.20;;;18.42;;
52468;SDS011;38381;53.688;10.776;2022-12-18T13:20:23;34.25;;;19.63;;
52468;SDS011;38381;53.688;10.776;2022-12-18T13:25:35;27.02;;;17.38;;
52468;SDS011;38381;53.688;10.776;2022-12-18T13:35:41;30.98;;;19.38;;
52468;SDS011;38381;53.688;10.776;2022-12-18T13:41:44;33.33;;;21.35;;
52468;SDS011;38381;53.688;10.776;2022-12-18T13:46:41;30.60;;;17.70;;
52468;SDS011;38381;53.688;10.776;2022-12-18T13:51:44;30.02;;;18.02;;
52468;SDS011;38381;53.688;10.776;2022-12-18T13:56:48;34.22;;;18.20;;
52468;SDS011;38381;53.688;10.776;2022-12-18T14:01:56;28.83;;;18.10;;
52468;SDS011;38381;53.688;10.776;2022-12-18T14:07:04;27.85;;;19.88;;
52468;SDS011;38381;53.688;10.776;2022-12-18T14:12:16;28.88;;;17.75;;
52468;SDS011;38381;53.688;10.776;2022-12-18T14:17:38;27.23;;;18.35;;
52468;SDS011;38381;53.688;10.776;2022-12-18T14:22:45;29.92;;;18.17;;
52468;SDS011;38381;53.688;10.776;2022-12-18T14:28:32;31.02;;;19.67;;
52468;SDS011;38381;53.688;10.776;2022-12-18T14:33:14;36.83;;;19.95;;
52468;SDS011;38381;53.688;10.776;2022-12-18T14:38:36;35.20;;;19.92;;
52468;SDS011;38381;53.688;10.776;2022-12-18T14:43:39;32.40;;;19.33;;
52468;SDS011;38381;53.688;10.776;2022-12-18T14:48:41;27.73;;;20.92;;
52468;SDS011;38381;53.688;10.776;2022-12-18T14:53:43;34.28;;;19.90;;
52468;SDS011;38381;53.688;10.776;2022-12-18T14:58:47;34.30;;;20.10;;
52468;SDS011;38381;53.688;10.776;2022-12-18T15:03:50;28.92;;;19.80;;
52468;SDS011;38381;53.688;10.776;2022-12-18T15:08:51;32.33;;;20.15;;
52468;SDS011;38381;53.688;10.776;2022-12-18T15:13:53;25.83;;;19.50;;
52468;SDS011;38381;53.688;10.776;2022-12-18T15:18:53;31.35;;;18.10;;
52468;SDS011;38381;53.688;10.776;2022-12-18T15:23:54;31.00;;;20.38;;
52468;SDS011;38381;53.688;10.776;2022-12-18T15:28:55;29.70;;;20.43;;
52468;SDS011;38381;53.688;10.776;2022-12-18T15:34:01;29.17;;;19.58;;
52468;SDS011;38381;53.688;10.776;2022-12-18T15:39:11;28.10;;;19.30;;
52468;SDS011;38381;53.688;10.776;2022-12-18T15:44:22;32.33;;;19.42;;
52468;SDS011;38381;53.688;10.776;2022-12-18T15:49:24;26.38;;;20.00;;
52468;SDS011;38381;53.688;10.776;2022-12-18T15:54:24;29.98;;;16.80;;
52468;SDS011;38381;53.688;10.776;2022-12-18T15:59:43;34.13;;;21.35;;
52468;SDS011;38381;53.688;10.776;2022-12-18T16:04:44;31.77;;;20.92;;
52468;SDS011;38381;53.688;10.776;2022-12-18T16:09:45;29.40;;;19.27;;
52468;SDS011;38381;53.688;10.776;2022-12-18T16:14:49;35.20;;;23.73;;
52468;SDS011;38381;53.688;10.776;2022-12-18T16:19:49;27.77;;;18.00;;
52468;SDS011;38381;53.688;10.776;2022-12-18T16:24:51;28.48;;;20.92;;
52468;SDS011;38381;53.688;10.776;2022-12-18T16:29:52;27.52;;;18.95;;
52468;SDS011;38381;53.688;10.776;2022-12-18T16:34:53;29.65;;;20.40;;
52468;SDS011;38381;53.688;10.776;2022-12-18T16:40:00;25.60;;;18.27;;
52468;SDS011;38381;53.688;10.776;2022-12-18T16:45:04;26.08;;;15.75;;
52468;SDS011;38381;53.688;10.776;2022-12-18T16:50:06;27.63;;;18.75;;
52468;SDS011;38381;53.688;10.776;2022-12-18T16:55:08;27.25;;;19.38;;
52468;SDS011;38381;53.688;10.776;2022-12-18T17:00:09;24.67;;;16.75;;
52468;SDS011;38381;53.688;10.776;2022-12-18T17:05:10;22.75;;;16.52;;
52468;SDS011;38381;53.688;10.776;2022-12-18T17:10:10;28.52;;;17.90;;
52468;SDS011;38381;53.688;10.776;2022-12-18T17:15:11;27.05;;;17.92;;
52468;SDS011;38381;53.688;10.776;2022-12-18T17:20:11;20.30;;;16.17;;
52468;SDS011;38381;53.688;10.776;2022-12-18T17:25:11;22.23;;;16.27;;
52468;SDS011;38381;53.688;10.776;2022-12-18T17:30:12;22.20;;;15.57;;
52468;SDS011;38381;53.688;10.776;2022-12-18T17:35:12;29.15;;;19.30;;
52468;SDS011;38381;53.688;10.776;2022-12-18T17:40:13;22.23;;;15.93;;
52468;SDS011;38381;53.688;10.776;2022-12-18T17:45:13;20.55;;;14.38;;
52468;SDS011;38381;53.688;10.776;2022-12-18T17:50:14;22.08;;;14.68;;
52468;SDS011;38381;53.688;10.776;2022-12-18T17:55:14;18.60;;;14.82;;
52468;SDS011;38381;53.688;10.776;2022-12-18T18:00:15;25.33;;;17.98;;
52468;SDS011;38381;53.688;10.776;2022-12-18T18:05:16;23.75;;;17.48;;
52468;SDS011;38381;53.688;10.776;2022-12-18T18:10:16;20.45;;;16.17;;
52468;SDS011;38381;53.688;10.776;2022-12-18T18:15:17;23.15;;;15.82;;
52468;SDS011;38381;53.688;10.776;2022-12-18T18:20:18;19.52;;;13.60;;
52468;SDS011;38381;53.688;10.776;2022-12-18T18:25:18;22.05;;;14.95;;
52468;SDS011;38381;53.688;10.776;2022-12-18T18:30:19;20.83;;;15.75;;
52468;SDS011;38381;53.688;10.776;2022-12-18T18:35:22;19.92;;;14.85;;
52468;SDS011;38381;53.688;10.776;2022-12-18T18:40:22;21.48;;;16.10;;
52468;SDS011;38381;53.688;10.776;2022-12-18T18:45:23;22.42;;;16.58;;
52468;SDS011;38381;53.688;10.776;2022-12-18T18:50:23;20.17;;;17.83;;
52468;SDS011;38381;53.688;10.776;2022-12-18T19:00:26;23.02;;;13.10;;
52468;SDS011;38381;53.688;10.776;2022-12-18T19:05:26;23.63;;;13.63;;
52468;SDS011;38381;53.688;10.776;2022-12-18T19:10:27;19.52;;;14.57;;
52468;SDS011;38381;53.688;10.776;2022-12-18T19:15:27;20.50;;;15.43;;
52468;SDS011;38381;53.688;10.776;2022-12-18T19:20:28;22.67;;;16.85;;
52468;SDS011;38381;53.688;10.776;2022-12-18T19:25:28;23.95;;;15.23;;
52468;SDS011;38381;53.688;10.776;2022-12-18T19:30:32;21.30;;;14.68;;
52468;SDS011;38381;53.688;10.776;2022-12-18T19:35:38;17.58;;;14.65;;
52468;SDS011;38381;53.688;10.776;2022-12-18T19:40:41;19.02;;;14.27;;
52468;SDS011;38381;53.688;10.776;2022-12-18T19:45:43;19.48;;;15.35;;
52468;SDS011;38381;53.688;10.776;2022-12-18T19:50:43;21.40;;;15.15;;
52468;SDS011;38381;53.688;10.776;2022-12-18T19:55:44;22.58;;;15.70;;
52468;SDS011;38381;53.688;10.776;2022-12-18T20:00:44;18.85;;;14.77;;
52468;SDS011;38381;53.688;10.776;2022-12-18T20:05:45;22.45;;;15.63;;
52468;SDS011;38381;53.688;10.776;2022-12-18T20:10:45;20.02;;;16.05;;
52468;SDS011;38381;53.688;10.776;2022-12-18T20:15:48;19.90;;;14.35;;
52468;SDS011;38381;53.688;10.776;2022-12-18T20:20:48;19.70;;;14.40;;
52468;SDS011;38381;53.688;10.776;2022-12-18T20:25:51;17.98;;;14.13;;
52468;SDS011;38381;53.688;10.776;2022-12-18T20:31:04;19.25;;;16.00;;
52468;SDS011;38381;53.688;10.776;2022-12-18T20:36:09;19.10;;;15.47;;
52468;SDS011;38381;53.688;10.776;2022-12-18T20:41:16;22.58;;;15.60;;
52468;SDS011;38381;53.688;10.776;2022-12-18T20:46:18;18.48;;;14.60;;
52468;SDS011;38381;53.688;10.776;2022-12-18T20:51:19;22.20;;;13.98;;
52468;SDS011;38381;53.688;10.776;2022-12-18T20:56:20;21.15;;;15.00;;
52468;SDS011;38381;53.688;10.776;2022-12-18T21:01:22;20.55;;;15.00;;
52468;SDS011;38381;53.688;10.776;2022-12-18T21:06:23;20.35;;;15.70;;
52468;SDS011;38381;53.688;10.776;2022-12-18T21:11:26;22.45;;;16.77;;
52468;SDS011;38381;53.688;10.776;2022-12-18T21:16:46;17.60;;;14.63;;
52468;SDS011;38381;53.688;10.776;2022-12-18T21:21:47;22.60;;;15.18;;
52468;SDS011;38381;53.688;10.776;2022-12-18T21:26:48;20.35;;;15.50;;
52468;SDS011;38381;53.688;10.776;2022-12-18T21:31:49;18.95;;;14.65;;
52468;SDS011;38381;53.688;10.776;2022-12-18T21:36:54;19.63;;;14.82;;
52468;SDS011;38381;53.688;10.776;2022-12-18T21:41:56;23.08;;;15.32;;
52468;SDS011;38381;53.688;10.776;2022-12-18T21:47:16;23.83;;;15.25;;
52468;SDS011;38381;53.688;10.776;2022-12-18T21:52:17;23.58;;;15.88;;
52468;SDS011;38381;53.688;10.776;2022-12-18T21:57:18;22.20;;;17.10;;
52468;SDS011;38381;53.688;10.776;2022-12-18T22:02:19;28.48;;;16.13;;
52468;SDS011;38381;53.688;10.776;2022-12-18T22:07:21;22.10;;;14.40;;
52468;SDS011;38381;53.688;10.776;2022-12-18T22:12:21;20.52;;;17.20;;
52468;SDS011;38381;53.688;10.776;2022-12-18T22:17:37;19.45;;;15.40;;
52468;SDS011;38381;53.688;10.776;2022-12-18T22:22:37;18.98;;;15.02;;
52468;SDS011;38381;53.688;10.776;2022-12-18T22:27:38;18.10;;;13.32;;
52468;SDS011;38381;53.688;10.776;2022-12-18T22:32:38;19.13;;;13.85;;
52468;SDS011;38381;53.688;10.776;2022-12-18T22:37:38;20.20;;;14.13;;
52468;SDS011;38381;53.688;10.776;2022-12-18T22:42:49;20.65;;;14.02;;
52468;SDS011;38381;53.688;10.776;2022-12-18T22:47:52;22.30;;;14.20;;
52468;SDS011;38381;53.688;10.776;2022-12-18T22:52:52;16.33;;;13.10;;
52468;SDS011;38381;53.688;10.776;2022-12-18T22:57:53;18.05;;;12.65;;
52468;SDS011;38381;53.688;10.776;2022-12-18T23:02:53;21.23;;;14.43;;
52468;SDS011;38381;53.688;10.776;2022-12-18T23:07:54;22.88;;;16.63;;
52468;SDS011;38381;53.688;10.776;2022-12-18T23:12:54;18.03;;;13.33;;
52468;SDS011;38381;53.688;10.776;2022-12-18T23:17:55;22.00;;;13.25;;
52468;SDS011;38381;53.688;10.776;2022-12-18T23:27:57;17.17;;;12.80;;
52468;SDS011;38381;53.688;10.776;2022-12-18T23:32:58;20.98;;;14.80;;
52468;SDS011;38381;53.688;10.776;2022-12-18T23:37:58;20.92;;;14.43;;
52468;SDS011;38381;53.688;10.776;2022-12-18T23:42:59;18.02;;;14.27;;
52468;SDS011;38381;53.688;10.776;2022-12-18T23:47:59;19.60;;;13.90;;
52468;SDS011;38381;53.688;10.776;2022-12-18T23:53:00;21.00;;;14.52;;
52468;SDS011;38381;53.688;10.776;2022-12-18T23:58:00;19.05;;;14.18;;
